createdAt,value
2023-03-04T00:02:03.308Z,100239.59
2023-03-04T00:04:30.164Z,100246.22
2023-03-04T00:06:57.059Z,100243.53
2023-03-04T00:09:23.774Z,100240.66
2023-03-04T00:11:50.440Z,100241.06
2023-03-04T00:14:17.240Z,100244.56
2023-03-04T00:16:44.125Z,100238.38
2023-03-04T00:19:11.594Z,100243.72
2023-03-04T00:21:38.428Z,100234.25
2023-03-04T00:24:05.414Z,100230.56
2023-03-04T00:26:33.949Z,100227.31
2023-03-04T00:29:00.676Z,100224.56
2023-03-04T00:31:27.441Z,100228.88
2023-03-04T00:33:55.693Z,100235.31
2023-03-04T00:36:22.371Z,100238.09
2023-03-04T00:38:49.140Z,100242.03
2023-03-04T00:41:15.877Z,100232.38
2023-03-04T00:43:42.658Z,100228.50
2023-03-04T00:46:09.425Z,100236.59
2023-03-04T00:48:36.264Z,100236.59
2023-03-04T00:51:03.309Z,100236.59
2023-03-04T00:53:30.021Z,100229.06
2023-03-04T00:55:56.872Z,100225.00
2023-03-04T00:58:23.565Z,100223.63
2023-03-04T01:00:51.235Z,100224.16
2023-03-04T01:03:18.678Z,100221.84
2023-03-04T01:05:45.411Z,100212.53
2023-03-04T01:08:12.081Z,100207.31
2023-03-04T01:10:38.848Z,100202.06
2023-03-04T01:13:05.962Z,100206.25
2023-03-04T01:15:32.725Z,100194.28
2023-03-04T01:17:59.551Z,100191.59
2023-03-04T01:20:26.361Z,100185.66
2023-03-04T01:22:53.146Z,100198.84
2023-03-04T01:25:19.919Z,100192.88
2023-03-04T01:27:46.609Z,100186.97
2023-03-04T01:30:14.449Z,100186.16
2023-03-04T01:32:41.535Z,100180.25
2023-03-04T01:35:09.652Z,100175.66
2023-03-04T01:37:36.389Z,100180.19
2023-03-04T01:40:03.659Z,100178.84
2023-03-04T01:42:34.093Z,100169.84
2023-03-04T01:45:01.164Z,100168.09
2023-03-04T01:47:32.356Z,100166.97
2023-03-04T01:50:01.705Z,100150.13
2023-03-04T01:52:28.896Z,100152.13
2023-03-04T01:54:55.889Z,100143.78
2023-03-04T01:57:26.021Z,100144.84
2023-03-04T02:00:30.992Z,100134.81
2023-03-04T02:03:11.407Z,100143.16
2023-03-04T02:05:41.037Z,100137.78
2023-03-04T02:08:09.234Z,100133.88
2023-03-04T02:10:36.945Z,100127.03
2023-03-04T02:13:25.553Z,100125.66
2023-03-04T02:15:52.277Z,100112.19
2023-03-04T02:18:21.401Z,100112.09
2023-03-04T02:21:04.259Z,100125.34
2023-03-04T02:23:37.894Z,100111.50
2023-03-04T02:26:20.622Z,100114.88
2023-03-04T02:28:52.930Z,100106.97
2023-03-04T02:31:25.329Z,100103.63
2023-03-04T02:33:54.280Z,100098.75
2023-03-04T02:36:22.089Z,100096.88
2023-03-04T02:38:51.519Z,100091.75
2023-03-04T02:41:23.140Z,100082.13
2023-03-04T02:43:52.334Z,100085.09
2023-03-04T02:46:19.118Z,100078.09
2023-03-04T02:48:46.043Z,100080.44
2023-03-04T02:51:13.059Z,100068.69
2023-03-04T02:53:39.828Z,100067.09
2023-03-04T02:56:07.104Z,100064.53
2023-03-04T02:58:38.346Z,100061.16
2023-03-04T03:01:07.060Z,100061.88
2023-03-04T03:03:33.835Z,100063.59
2023-03-04T03:06:00.692Z,100052.56
2023-03-04T03:08:27.558Z,100057.44
2023-03-04T03:10:54.517Z,100049.38
2023-03-04T03:13:22.624Z,100046.16
2023-03-04T03:15:50.795Z,100049.25
2023-03-04T03:18:17.641Z,100049.00
2023-03-04T03:20:44.434Z,100044.59
2023-03-04T03:23:11.231Z,100039.19
2023-03-04T03:25:38.088Z,100036.66
2023-03-04T03:28:05.933Z,100029.25
2023-03-04T03:30:32.733Z,100039.47
2023-03-04T03:32:59.498Z,100029.47
2023-03-04T03:35:26.293Z,100029.47
2023-03-04T03:37:53.056Z,100022.22
2023-03-04T03:40:19.812Z,100017.66
2023-03-04T03:42:46.671Z,100023.69
2023-03-04T03:45:13.457Z,100017.66
2023-03-04T03:47:40.161Z,100008.94
2023-03-04T03:50:07.546Z,100014.06
2023-03-04T03:52:34.422Z,100015.41
2023-03-04T03:55:02.189Z,100006.66
2023-03-04T03:57:30.476Z,100002.94
2023-03-04T03:59:57.394Z,99999.66
2023-03-04T04:02:24.421Z,100011.28
2023-03-04T04:04:51.342Z,100004.81
2023-03-04T04:07:18.264Z,99996.06
2023-03-04T04:09:45.064Z,99997.56
2023-03-04T04:12:14.903Z,99993.81
2023-03-04T04:14:41.710Z,99996.78
2023-03-04T04:17:08.800Z,99998.13
2023-03-04T04:19:35.651Z,99994.63
2023-03-04T04:22:03.293Z,99993.41
2023-03-04T04:24:30.227Z,99994.34
2023-03-04T04:26:57.509Z,99998.66
2023-03-04T04:29:24.396Z,99995.72
2023-03-04T04:31:51.321Z,99991.94
2023-03-04T04:34:18.084Z,99997.06
2023-03-04T04:36:44.831Z,99988.19
2023-03-04T04:39:11.605Z,99993.53
2023-03-04T04:41:40.939Z,99995.72
2023-03-04T04:44:08.081Z,99984.69
2023-03-04T04:46:35.011Z,99990.47
2023-03-04T04:49:02.004Z,99990.03
2023-03-04T04:51:29.038Z,99989.91
2023-03-04T04:53:55.886Z,99993.84
2023-03-04T04:56:26.389Z,99995.44
2023-03-04T04:58:58.787Z,99986.53
2023-03-04T05:01:26.105Z,99986.28
2023-03-04T05:03:55.803Z,99988.97
2023-03-04T05:06:24.270Z,99986.53
2023-03-04T05:08:51.861Z,99988.72
2023-03-04T05:11:19.673Z,99993.84
2023-03-04T05:13:47.120Z,99993.69
2023-03-04T05:16:14.701Z,99991.41
2023-03-04T05:18:42.025Z,99991.13
2023-03-04T05:21:08.972Z,99989.25
2023-03-04T05:23:38.441Z,99996.78
2023-03-04T05:26:06.527Z,99995.44
2023-03-04T05:28:35.189Z,100000.41
2023-03-04T05:31:02.005Z,99994.50
2023-03-04T05:33:28.969Z,99997.84
2023-03-04T05:35:55.776Z,99997.19
2023-03-04T05:38:23.102Z,99999.75
2023-03-04T05:40:50.392Z,100005.38
2023-03-04T05:43:17.474Z,100002.44
2023-03-04T05:45:44.253Z,100009.44
2023-03-04T05:48:11.469Z,100010.53
2023-03-04T05:50:38.235Z,100008.47
2023-03-04T05:53:04.955Z,100011.81
2023-03-04T05:55:31.738Z,100009.41
2023-03-04T05:57:58.758Z,100011.00
2023-03-04T06:00:26.234Z,100011.91
2023-03-04T06:02:53.175Z,100004.22
2023-03-04T06:05:20.422Z,99998.22
2023-03-04T06:07:47.714Z,100006.47
2023-03-04T06:10:16.804Z,100004.44
2023-03-04T06:12:43.914Z,100020.31
2023-03-04T06:15:11.955Z,100012.63
2023-03-04T06:17:42.026Z,100012.56
2023-03-04T06:20:10.941Z,100015.00
2023-03-04T06:22:37.684Z,100021.22
2023-03-04T06:25:06.312Z,100026.88
2023-03-04T06:27:33.137Z,100029.13
2023-03-04T06:30:02.058Z,100035.69
2023-03-04T06:32:29.412Z,100032.28
2023-03-04T06:34:56.360Z,100025.75
2023-03-04T06:37:23.409Z,100028.13
2023-03-04T06:39:50.499Z,100026.09
2023-03-04T06:42:17.240Z,100023.13
2023-03-04T06:44:43.945Z,100026.50
2023-03-04T06:47:10.808Z,100025.47
2023-03-04T06:49:37.591Z,100026.59
2023-03-04T06:52:04.474Z,100033.81
2023-03-04T06:54:31.319Z,100035.25
2023-03-04T06:56:58.060Z,100039.50
2023-03-04T06:59:24.976Z,100037.94
2023-03-04T07:01:51.654Z,100034.03
2023-03-04T07:04:18.571Z,100030.94
2023-03-04T07:06:45.344Z,100027.09
2023-03-04T07:09:12.070Z,100038.28
2023-03-04T07:11:38.845Z,100030.91
2023-03-04T07:14:05.534Z,100030.97
2023-03-04T07:16:32.453Z,100028.19
2023-03-04T07:18:59.407Z,100033.91
2023-03-04T07:21:26.722Z,100031.63
2023-03-04T07:23:53.568Z,100035.53
2023-03-04T07:26:20.915Z,100035.72
2023-03-04T07:28:47.662Z,100042.00
2023-03-04T07:31:25.344Z,100044.59
2023-03-04T07:33:52.267Z,100037.44
2023-03-04T07:36:20.080Z,100042.06
2023-03-04T07:38:48.527Z,100043.34
2023-03-04T07:41:17.719Z,100050.63
2023-03-04T07:43:45.096Z,100046.81
2023-03-04T07:46:12.451Z,100048.59
2023-03-04T07:48:39.688Z,100044.19
2023-03-04T07:51:10.763Z,100046.03
2023-03-04T07:53:38.782Z,100040.16
2023-03-04T07:56:06.607Z,100049.34
2023-03-04T07:58:33.615Z,100052.81
2023-03-04T08:01:00.390Z,100056.28
2023-03-04T08:03:28.779Z,100057.91
2023-03-04T08:05:55.516Z,100051.13
2023-03-04T08:08:22.828Z,100056.19
2023-03-04T08:10:49.494Z,100059.09
2023-03-04T08:13:16.238Z,100050.38
2023-03-04T08:15:43.611Z,100056.97
2023-03-04T08:18:10.451Z,100051.88
2023-03-04T08:20:37.234Z,100052.69
2023-03-04T08:23:04.281Z,100048.41
2023-03-04T08:25:31.042Z,100058.06
2023-03-04T08:27:58.779Z,100047.34
2023-03-04T08:30:25.484Z,100051.34
2023-03-04T08:32:52.247Z,100050.28
2023-03-04T08:35:19.039Z,100043.13
2023-03-04T08:37:47.078Z,100048.19
2023-03-04T08:40:14.753Z,100045.63
2023-03-04T08:42:42.697Z,100042.06
2023-03-04T08:45:10.499Z,100034.66
2023-03-04T08:47:37.757Z,100045.09
2023-03-04T08:50:06.426Z,100034.69
2023-03-04T08:52:33.430Z,100037.09
2023-03-04T08:55:00.387Z,100034.50
2023-03-04T08:57:31.881Z,100031.09
2023-03-04T08:59:58.569Z,100023.28
2023-03-04T09:02:25.292Z,100022.28
2023-03-04T09:04:52.070Z,100024.25
2023-03-04T09:07:18.936Z,100015.25
2023-03-04T09:09:45.712Z,100011.94
2023-03-04T09:12:12.507Z,100018.97
2023-03-04T09:14:39.215Z,100005.47
2023-03-04T09:17:06.370Z,99997.13
2023-03-04T09:19:33.211Z,100011.09
2023-03-04T09:21:59.982Z,100007.72
2023-03-04T09:24:27.143Z,100005.28
2023-03-04T09:26:55.159Z,100005.53
2023-03-04T09:29:22.331Z,100000.34
2023-03-04T09:31:49.122Z,100000.31
2023-03-04T09:34:15.901Z,100005.09
2023-03-04T09:36:42.691Z,100007.50
2023-03-04T09:39:09.489Z,99995.91
2023-03-04T09:41:53.174Z,99994.31
2023-03-04T09:44:31.026Z,99989.50
2023-03-04T09:47:04.384Z,99988.28
2023-03-04T09:49:32.048Z,99985.41
2023-03-04T09:52:18.310Z,99978.63
2023-03-04T09:54:47.899Z,99977.81
2023-03-04T09:57:42.583Z,99973.72
2023-03-04T10:00:20.000Z,99973.72
2023-03-04T10:03:28.589Z,99956.72
2023-03-04T10:06:02.936Z,99970.97
2023-03-04T10:08:50.691Z,99958.06
2023-03-04T10:11:37.719Z,99964.00
2023-03-04T10:14:12.526Z,99949.63
2023-03-04T10:16:54.222Z,99952.88
2023-03-04T10:19:43.772Z,99958.63
2023-03-04T10:22:47.038Z,99943.19
2023-03-04T10:25:20.980Z,99948.63
2023-03-04T10:28:17.604Z,99938.16
2023-03-04T10:31:10.085Z,99935.44
2023-03-04T10:33:39.379Z,99936.34
2023-03-04T10:36:30.233Z,99930.84
2023-03-04T10:39:10.915Z,99934.81
2023-03-04T10:41:37.818Z,99932.59
2023-03-04T10:44:10.075Z,99920.19
2023-03-04T10:46:41.105Z,99927.13
2023-03-04T10:49:10.061Z,99914.00
2023-03-04T10:51:45.508Z,99916.72
2023-03-04T10:54:35.271Z,99914.94
2023-03-04T10:57:05.583Z,99906.00
2023-03-04T10:59:35.454Z,99901.66
2023-03-04T11:02:22.385Z,99893.88
2023-03-04T11:04:53.741Z,99889.72
2023-03-04T11:07:22.801Z,99877.72
2023-03-04T11:09:49.783Z,99876.13
2023-03-04T11:12:20.177Z,99881.16
2023-03-04T11:14:52.399Z,99864.78
2023-03-04T11:17:42.011Z,99874.56
2023-03-04T11:20:29.730Z,99885.34
2023-03-04T11:22:59.945Z,99865.75
2023-03-04T11:25:40.863Z,99861.78
2023-03-04T11:28:36.566Z,99858.16
2023-03-04T11:31:31.538Z,99850.53
2023-03-04T11:34:28.620Z,99846.75
2023-03-04T11:37:01.966Z,99856.16
2023-03-04T11:39:56.810Z,99835.81
2023-03-04T11:42:32.657Z,99839.75
2023-03-04T11:45:00.632Z,99836.34
2023-03-04T11:47:44.193Z,99833.34
2023-03-04T11:50:10.826Z,99820.22
2023-03-04T11:53:00.576Z,99826.53
2023-03-04T11:55:45.744Z,99814.50
2023-03-04T11:58:27.435Z,99812.72
2023-03-04T12:00:56.824Z,99810.88
2023-03-04T12:03:29.266Z,99809.81
2023-03-04T12:06:28.392Z,99809.31
2023-03-04T12:09:08.884Z,99804.03
2023-03-04T12:12:02.965Z,99812.47
2023-03-04T12:14:29.675Z,99811.25
2023-03-04T12:17:22.723Z,99806.13
2023-03-04T12:20:02.661Z,99802.78
2023-03-04T12:22:44.409Z,99801.25
2023-03-04T12:25:15.700Z,99792.25
2023-03-04T12:28:21.260Z,99791.28
2023-03-04T12:31:03.963Z,99790.09
2023-03-04T12:33:55.443Z,99791.88
2023-03-04T12:37:00.239Z,99773.13
2023-03-04T12:40:13.404Z,99787.25
2023-03-04T12:43:14.966Z,99772.94
2023-03-04T12:45:44.819Z,99770.72
2023-03-04T12:48:20.284Z,99766.94
2023-03-04T12:51:17.479Z,99754.78
2023-03-04T12:53:58.446Z,99747.94
2023-03-04T12:56:39.109Z,99750.13
2023-03-04T12:59:07.980Z,99736.31
2023-03-04T13:01:41.823Z,99738.69
2023-03-04T13:04:12.762Z,99728.44
2023-03-04T13:07:08.862Z,99733.81
2023-03-04T13:09:58.890Z,99730.19
2023-03-04T13:12:25.970Z,99732.94
2023-03-04T13:15:07.895Z,99711.53
2023-03-04T13:17:43.855Z,99707.69
2023-03-04T13:20:41.417Z,99711.09
2023-03-04T13:23:13.879Z,99717.41
2023-03-04T13:25:56.965Z,99710.00
2023-03-04T13:28:24.700Z,99720.00
2023-03-04T13:30:59.433Z,99716.03
2023-03-04T13:33:26.122Z,99720.47
2023-03-04T13:36:04.317Z,99723.03
2023-03-04T13:38:31.249Z,99723.44
2023-03-04T13:41:14.043Z,99724.91
2023-03-04T13:44:32.004Z,99716.81
2023-03-04T13:47:07.310Z,99732.38
2023-03-04T13:49:34.673Z,99741.22
2023-03-04T13:52:47.715Z,99726.09
2023-03-04T13:55:33.278Z,99728.09
2023-03-04T13:58:00.231Z,99735.25
2023-03-04T14:00:28.801Z,99738.91
2023-03-04T14:02:55.604Z,99734.09
2023-03-04T14:05:22.646Z,99732.88
2023-03-04T14:07:49.389Z,99734.50
2023-03-04T14:10:24.859Z,99736.13
2023-03-04T14:12:55.533Z,99736.94
2023-03-04T14:15:26.556Z,99737.91
2023-03-04T14:18:02.080Z,99747.25
2023-03-04T14:20:33.988Z,99749.06
2023-03-04T14:23:03.216Z,99744.06
2023-03-04T14:25:32.712Z,99736.88
2023-03-04T14:28:16.778Z,99753.47
2023-03-04T14:30:51.423Z,99747.06
2023-03-04T14:33:29.926Z,99746.38
2023-03-04T14:36:00.236Z,99750.09
2023-03-04T14:38:32.065Z,99745.78
2023-03-04T14:41:10.433Z,99744.91
2023-03-04T14:43:47.119Z,99736.34
2023-03-04T14:46:19.121Z,99739.66
2023-03-04T14:48:52.718Z,99735.69
2023-03-04T14:51:42.446Z,99735.75
2023-03-04T14:54:36.588Z,99740.91
2023-03-04T14:57:25.987Z,99739.34
2023-03-04T14:59:53.876Z,99742.34
2023-03-04T15:02:33.890Z,99745.44
2023-03-04T15:05:17.025Z,99763.28
2023-03-04T15:07:45.138Z,99744.28
2023-03-04T15:10:13.149Z,99738.97
2023-03-04T15:12:39.899Z,99736.09
2023-03-04T15:15:39.874Z,99742.44
2023-03-04T15:18:26.541Z,99743.00
2023-03-04T15:20:58.018Z,99750.75
2023-03-04T15:23:25.634Z,99747.19
2023-03-04T15:25:58.166Z,99741.94
2023-03-04T15:28:25.829Z,99745.94
2023-03-04T15:30:53.216Z,99745.25
2023-03-04T15:33:21.262Z,99752.09
2023-03-04T15:36:02.497Z,99749.59
2023-03-04T15:38:30.452Z,99769.06
2023-03-04T15:40:59.696Z,99754.97
2023-03-04T15:43:27.034Z,99768.47
2023-03-04T15:45:54.386Z,99766.34
2023-03-04T15:48:21.726Z,99763.47
2023-03-04T15:51:00.675Z,99771.63
2023-03-04T15:53:40.916Z,99771.44
2023-03-04T15:56:15.188Z,99770.97
2023-03-04T15:58:43.256Z,99777.69
2023-03-04T16:01:14.937Z,99776.78
2023-03-04T16:03:41.717Z,99779.72
2023-03-04T16:06:18.797Z,99785.50
2023-03-04T16:08:46.449Z,99784.63
2023-03-04T16:11:25.531Z,99800.66
2023-03-04T16:13:52.519Z,99801.88
2023-03-04T16:16:20.178Z,99794.50
2023-03-04T16:18:46.966Z,99803.22
2023-03-04T16:21:17.200Z,99799.53
2023-03-04T16:23:47.098Z,99808.00
2023-03-04T16:26:17.734Z,99796.38
2023-03-04T16:28:44.716Z,99805.56
2023-03-04T16:31:13.749Z,99803.44
2023-03-04T16:33:40.731Z,99805.41
2023-03-04T16:36:23.834Z,99817.78
2023-03-04T16:38:51.926Z,99814.72
2023-03-04T16:41:26.132Z,99812.63
2023-03-04T16:43:53.528Z,99818.19
2023-03-04T16:46:21.900Z,99823.34
2023-03-04T16:48:48.968Z,99830.44
2023-03-04T16:51:20.898Z,99837.19
2023-03-04T16:53:56.493Z,99849.81
2023-03-04T16:56:23.853Z,99839.38
2023-03-04T16:58:50.689Z,99843.91
2023-03-04T17:01:28.928Z,99850.06
2023-03-04T17:03:56.775Z,99855.19
2023-03-04T17:06:25.048Z,99859.72
2023-03-04T17:08:52.161Z,99864.88
2023-03-04T17:11:23.746Z,99862.97
2023-03-04T17:13:51.092Z,99868.13
2023-03-04T17:16:18.724Z,99880.19
2023-03-04T17:18:46.212Z,99870.09
2023-03-04T17:21:16.342Z,99892.28
2023-03-04T17:23:43.063Z,99897.28
2023-03-04T17:26:09.887Z,99892.94
2023-03-04T17:28:36.907Z,99891.34
2023-03-04T17:31:13.114Z,99911.09
2023-03-04T17:33:40.065Z,99906.25
2023-03-04T17:36:08.900Z,99909.94
2023-03-04T17:38:37.688Z,99902.22
2023-03-04T17:41:06.060Z,99904.19
2023-03-04T17:43:32.793Z,99912.53
2023-03-04T17:46:07.801Z,99908.00
2023-03-04T17:48:34.895Z,99903.03
2023-03-04T17:51:02.052Z,99913.75
2023-03-04T17:53:30.074Z,99904.13
2023-03-04T17:56:01.840Z,99906.81
2023-03-04T17:58:30.660Z,99915.47
2023-03-04T18:01:19.014Z,99896.53
2023-03-04T18:03:46.134Z,99905.69
2023-03-04T18:06:12.942Z,99913.41
2023-03-04T18:08:39.600Z,99904.97
2023-03-04T18:11:06.548Z,99906.75
2023-03-04T18:13:33.399Z,99912.69
2023-03-04T18:16:00.251Z,99913.53
2023-03-04T18:18:27.003Z,99911.44
2023-03-04T18:21:00.613Z,99902.47
2023-03-04T18:23:28.661Z,99909.31
2023-03-04T18:25:56.199Z,99909.31
2023-03-04T18:28:23.225Z,99914.44
2023-03-04T18:30:54.292Z,99911.06
2023-03-04T18:33:21.578Z,99908.22
2023-03-04T18:35:48.437Z,99907.88
2023-03-04T18:38:15.340Z,99901.09
2023-03-04T18:40:43.264Z,99908.22
2023-03-04T18:43:10.090Z,99896.97
2023-03-04T18:45:36.864Z,99906.22
2023-03-04T18:48:04.388Z,99899.00
2023-03-04T18:50:31.116Z,99911.69
2023-03-04T18:52:58.279Z,99912.63
2023-03-04T18:55:25.111Z,99917.97
2023-03-04T18:57:54.883Z,99913.28
2023-03-04T19:00:24.085Z,99916.59
2023-03-04T19:02:56.016Z,99915.19
2023-03-04T19:05:28.966Z,99922.53
2023-03-04T19:07:55.974Z,99924.66
2023-03-04T19:10:23.802Z,99927.56
2023-03-04T19:12:50.728Z,99928.09
2023-03-04T19:15:18.414Z,99926.34
2023-03-04T19:17:46.182Z,99925.22
2023-03-04T19:20:14.010Z,99924.41
2023-03-04T19:22:40.859Z,99928.53
2023-03-04T19:25:08.248Z,99918.22
2023-03-04T19:27:35.136Z,99930.72
2023-03-04T19:30:02.190Z,99936.69
2023-03-04T19:32:29.568Z,99933.16
2023-03-04T19:34:56.300Z,99928.31
2023-03-04T19:37:23.065Z,99937.25
2023-03-04T19:39:50.384Z,99936.59
2023-03-04T19:42:17.282Z,99937.56
2023-03-04T19:44:45.108Z,99941.41
2023-03-04T19:47:12.049Z,99930.63
2023-03-04T19:49:38.778Z,99930.28
2023-03-04T19:52:05.776Z,99939.59
2023-03-04T19:54:33.248Z,99933.66
2023-03-04T19:57:00.236Z,99929.31
2023-03-04T19:59:27.012Z,99938.28
2023-03-04T20:01:54.230Z,99932.63
2023-03-04T20:04:21.949Z,99929.72
2023-03-04T20:06:50.856Z,99938.06
2023-03-04T20:09:18.464Z,99931.47
2023-03-04T20:11:57.313Z,99940.63
2023-03-04T20:14:25.211Z,99938.03
2023-03-04T20:16:51.932Z,99944.09
2023-03-04T20:19:18.641Z,99946.53
2023-03-04T20:21:45.385Z,99943.22
2023-03-04T20:24:13.096Z,99945.28
2023-03-04T20:26:39.815Z,99947.19
2023-03-04T20:29:06.563Z,99950.22
2023-03-04T20:31:38.428Z,99946.69
2023-03-04T20:34:06.329Z,99945.59
2023-03-04T20:36:34.575Z,99953.13
2023-03-04T20:39:02.723Z,99947.78
2023-03-04T20:41:30.456Z,99949.72
2023-03-04T20:43:57.311Z,99941.06
2023-03-04T20:46:43.284Z,99942.22
2023-03-04T20:49:13.335Z,99949.91
2023-03-04T20:51:40.710Z,99942.56
2023-03-04T20:54:08.179Z,99945.13
2023-03-04T20:56:35.688Z,99940.94
2023-03-04T20:59:04.480Z,99939.00
2023-03-04T21:01:31.770Z,99938.72
2023-03-04T21:03:59.929Z,99938.41
2023-03-04T21:06:28.521Z,99935.56
2023-03-04T21:08:56.128Z,99940.41
2023-03-04T21:11:26.070Z,99939.94
2023-03-04T21:13:56.302Z,99934.03
2023-03-04T21:16:28.013Z,99939.84
2023-03-04T21:18:55.151Z,99933.88
2023-03-04T21:21:26.903Z,99933.75
2023-03-04T21:23:55.089Z,99931.00
2023-03-04T21:26:22.792Z,99933.41
2023-03-04T21:28:50.975Z,99928.28
2023-03-04T21:31:22.306Z,99926.69
2023-03-04T21:33:49.547Z,99928.28
2023-03-04T21:36:16.411Z,99923.16
2023-03-04T21:38:44.129Z,99928.78
2023-03-04T21:41:16.096Z,99921.63
2023-03-04T21:43:43.227Z,99915.88
2023-03-04T21:46:10.444Z,99927.81
2023-03-04T21:48:37.385Z,99928.03
2023-03-04T21:51:09.286Z,99928.06
2023-03-04T21:53:36.582Z,99931.47
2023-03-04T21:56:04.848Z,99922.88
2023-03-04T21:58:35.080Z,99918.25
2023-03-04T22:01:09.198Z,99924.56
2023-03-04T22:03:36.012Z,99918.13
2023-03-04T22:06:06.117Z,99922.69
2023-03-04T22:08:32.875Z,99914.66
2023-03-04T22:11:04.466Z,99917.88
2023-03-04T22:13:31.373Z,99917.25
2023-03-04T22:15:58.985Z,99918.53
2023-03-04T22:18:26.417Z,99919.66
2023-03-04T22:20:58.889Z,99910.00
2023-03-04T22:23:25.645Z,99909.53
2023-03-04T22:25:52.369Z,99915.31
2023-03-04T22:28:19.085Z,99913.09
2023-03-04T22:30:45.835Z,99911.31
2023-03-04T22:33:12.632Z,99914.22
2023-03-04T22:35:42.613Z,99913.09
2023-03-04T22:38:09.324Z,99917.94
2023-03-04T22:40:36.058Z,99919.69
2023-03-04T22:43:02.726Z,99907.00
2023-03-04T22:45:31.140Z,99918.09
2023-03-04T22:47:57.885Z,99927.28
2023-03-04T22:50:25.061Z,99923.38
2023-03-04T22:52:52.033Z,99928.88
2023-03-04T22:55:20.744Z,99921.50
2023-03-04T22:57:47.879Z,99919.88
2023-03-04T23:00:17.647Z,99922.78
2023-03-04T23:02:59.783Z,99927.28
2023-03-04T23:05:26.645Z,99927.28
2023-03-04T23:07:53.751Z,99925.19
2023-03-04T23:10:25.202Z,99921.63
2023-03-04T23:12:52.694Z,99926.31
2023-03-04T23:15:20.297Z,99925.84
2023-03-04T23:17:47.373Z,99928.25
2023-03-04T23:20:17.718Z,99926.31
2023-03-04T23:22:45.823Z,99931.81
2023-03-04T23:25:13.566Z,99931.81
2023-03-04T23:27:42.467Z,99933.75
2023-03-04T23:30:16.901Z,99937.13
2023-03-04T23:32:44.842Z,99937.13
2023-03-04T23:35:12.035Z,99939.53
2023-03-04T23:37:39.061Z,99934.41
2023-03-04T23:40:06.315Z,99936.66
2023-03-04T23:42:33.153Z,99940.84
2023-03-04T23:45:00.054Z,99934.09
2023-03-04T23:47:26.822Z,99939.88
2023-03-04T23:49:53.657Z,99941.78
2023-03-04T23:52:20.456Z,99937.47
2023-03-04T23:54:47.222Z,99933.78
2023-03-04T23:57:14.051Z,99942.16
2023-03-04T23:59:40.928Z,99932.66
